Time;durP1;ratioP1;P1;durP2;ratioP2;P2;SDS_P1;SDS_P2;PMS_P1;PMS_P2;Temp;Humidity;BMP_temperature;BMP_pressure;BME280_temperature;BME280_humidity;BME280_pressure;Samples;Min_cycle;Max_cycle;Signal;HPM_P1;HPM_P2
2023/07/30 00:01:54;;;;;;;30.55;5.05;;;;;;;;;;5021372;28;20037;-72
2023/07/30 00:04:20;;;;;;;31.75;5.88;;;;;;;;;;5019356;28;20041;-77
2023/07/30 00:06:48;;;;;;;30.05;5.55;;;;;;;;;;5047779;28;20053;-75
2023/07/30 00:09:14;;;;;;;31.38;6.30;;;;;;;;;;5046170;28;20036;-75
2023/07/30 00:11:39;;;;;;;30.88;6.30;;;;;;;;;;5021641;28;20060;-74
2023/07/30 00:14:04;;;;;;;25.50;4.93;;;;;;;;;;5023228;28;20415;-74
2023/07/30 00:16:30;;;;;;;27.00;5.25;;;;;;;;;;5018497;28;20111;-76
2023/07/30 00:18:56;;;;;;;29.60;5.15;;;;;;;;;;5018381;28;20025;-76
2023/07/30 00:21:21;;;;;;;29.80;5.03;;;;;;;;;;5053026;28;20033;-71
2023/07/30 00:23:49;;;;;;;31.63;5.82;;;;;;;;;;5020781;28;20040;-76
2023/07/30 00:26:14;;;;;;;23.65;5.28;;;;;;;;;;5021235;28;20662;-78
2023/07/30 00:28:39;;;;;;;25.90;5.03;;;;;;;;;;5020925;28;20095;-77
2023/07/30 00:31:05;;;;;;;32.35;5.35;;;;;;;;;;5020889;28;20037;-75
2023/07/30 00:33:30;;;;;;;26.42;4.55;;;;;;;;;;5052612;28;20517;-75
2023/07/30 00:35:58;;;;;;;26.05;5.18;;;;;;;;;;5020510;28;20033;-77
2023/07/30 00:38:23;;;;;;;35.85;6.38;;;;;;;;;;5019496;28;20049;-75
2023/07/30 00:40:48;;;;;;;32.08;5.45;;;;;;;;;;5021286;28;20044;-75
2023/07/30 00:43:14;;;;;;;25.02;5.45;;;;;;;;;;5020595;28;20659;-76
2023/07/30 00:45:43;;;;;;;27.70;4.95;;;;;;;;;;5019622;28;20037;-76
2023/07/30 00:48:09;;;;;;;23.70;5.18;;;;;;;;;;5019112;28;20044;-71
2023/07/30 00:50:35;;;;;;;39.60;5.97;;;;;;;;;;5019933;28;20029;-77
2023/07/30 00:53:00;;;;;;;30.50;5.20;;;;;;;;;;5020272;28;20041;-75
2023/07/30 00:55:25;;;;;;;28.20;4.95;;;;;;;;;;5020660;28;20048;-75
2023/07/30 00:57:51;;;;;;;22.50;4.80;;;;;;;;;;5019229;28;20051;-75
2023/07/30 01:00:19;;;;;;;34.00;6.13;;;;;;;;;;5016178;28;20041;-75
2023/07/30 01:02:44;;;;;;;26.13;4.68;;;;;;;;;;5033613;28;20044;-75
2023/07/30 01:05:09;;;;;;;23.05;5.10;;;;;;;;;;5021189;28;20320;-76
2023/07/30 01:07:35;;;;;;;26.98;5.15;;;;;;;;;;5020424;28;20040;-76
2023/07/30 01:10:00;;;;;;;24.85;4.90;;;;;;;;;;5014938;28;20029;-76
2023/07/30 01:12:26;;;;;;;25.77;5.18;;;;;;;;;;5019849;28;20556;-75
2023/07/30 01:14:52;;;;;;;27.63;4.72;;;;;;;;;;5017819;28;20045;-74
2023/07/30 01:17:18;;;;;;;28.27;4.60;;;;;;;;;;5050710;28;20041;-75
2023/07/30 01:19:43;;;;;;;27.15;4.65;;;;;;;;;;5019491;28;20037;-72
2023/07/30 01:22:08;;;;;;;17.13;4.13;;;;;;;;;;5019219;28;20033;-76
2023/07/30 01:24:34;;;;;;;21.25;3.92;;;;;;;;;;5032663;28;20098;-78
2023/07/30 01:27:04;;;;;;;25.05;4.55;;;;;;;;;;5016414;28;20090;-75
2023/07/30 01:29:40;;;;;;;21.38;4.15;;;;;;;;;;5018465;28;20148;-76
2023/07/30 01:32:07;;;;;;;31.05;5.38;;;;;;;;;;5016609;28;20048;-75
2023/07/30 01:34:34;;;;;;;28.55;4.55;;;;;;;;;;5018215;28;20053;-78
2023/07/30 01:37:00;;;;;;;25.25;5.13;;;;;;;;;;5019496;28;20040;-76
2023/07/30 01:39:28;;;;;;;24.13;5.13;;;;;;;;;;5020064;28;20100;-77
2023/07/30 01:41:56;;;;;;;32.30;5.15;;;;;;;;;;5018652;28;20037;-75
2023/07/30 01:44:21;;;;;;;26.67;4.55;;;;;;;;;;5018836;28;20120;-72
2023/07/30 01:46:46;;;;;;;25.73;5.03;;;;;;;;;;5051787;28;20029;-74
2023/07/30 01:49:12;;;;;;;17.38;3.45;;;;;;;;;;5001988;28;20051;-77
2023/07/30 01:51:37;;;;;;;19.35;3.55;;;;;;;;;;4998176;28;20053;-71
2023/07/30 01:54:02;;;;;;;14.38;2.80;;;;;;;;;;4998370;28;21832;-73
2023/07/30 01:56:28;;;;;;;18.20;2.83;;;;;;;;;;5014708;28;20029;-71
2023/07/30 01:58:53;;;;;;;15.90;3.20;;;;;;;;;;5018778;28;20033;-71
2023/07/30 02:01:18;;;;;;;15.35;3.30;;;;;;;;;;5017752;28;20025;-72
2023/07/30 02:03:44;;;;;;;13.30;3.00;;;;;;;;;;5018427;28;20165;-74
2023/07/30 02:06:10;;;;;;;14.88;2.53;;;;;;;;;;5020539;28;20564;-73
2023/07/30 02:08:36;;;;;;;20.20;2.70;;;;;;;;;;5016394;28;22287;-74
2023/07/30 02:11:01;;;;;;;17.58;2.75;;;;;;;;;;5018126;28;20057;-73
2023/07/30 02:13:26;;;;;;;13.05;2.42;;;;;;;;;;5050672;28;21109;-73
2023/07/30 02:15:52;;;;;;;13.45;2.70;;;;;;;;;;5033109;28;20082;-74
2023/07/30 02:18:17;;;;;;;17.95;2.58;;;;;;;;;;5039621;28;20134;-72
2023/07/30 02:20:42;;;;;;;15.57;2.45;;;;;;;;;;5008695;28;20041;-71
2023/07/30 02:23:08;;;;;;;13.85;2.50;;;;;;;;;;4998562;28;20055;-74
2023/07/30 02:25:33;;;;;;;12.65;2.83;;;;;;;;;;5029893;28;21546;-73
2023/07/30 02:27:59;;;;;;;14.43;2.40;;;;;;;;;;4999215;28;20040;-74
2023/07/30 02:30:24;;;;;;;9.73;2.20;;;;;;;;;;4998030;28;20038;-76
2023/07/30 02:32:50;;;;;;;10.43;2.30;;;;;;;;;;4998286;28;20087;-76
2023/07/30 02:35:15;;;;;;;13.43;2.10;;;;;;;;;;4998285;28;21014;-72
2023/07/30 02:37:40;;;;;;;15.70;2.60;;;;;;;;;;4999920;28;20045;-75
2023/07/30 02:40:06;;;;;;;12.73;2.65;;;;;;;;;;4998472;28;20037;-73
2023/07/30 02:42:31;;;;;;;17.75;2.78;;;;;;;;;;5029081;28;20046;-73
2023/07/30 02:44:56;;;;;;;18.80;2.70;;;;;;;;;;5003556;28;20041;-79
2023/07/30 02:47:22;;;;;;;14.10;2.53;;;;;;;;;;5019687;28;20036;-78
2023/07/30 02:49:47;;;;;;;16.73;2.53;;;;;;;;;;5050998;28;20037;-79
2023/07/30 02:52:12;;;;;;;16.63;3.05;;;;;;;;;;5017114;28;20091;-77
2023/07/30 02:54:38;;;;;;;13.80;2.78;;;;;;;;;;5048395;28;20090;-74
2023/07/30 02:57:03;;;;;;;15.43;3.20;;;;;;;;;;5020361;28;20041;-71
2023/07/30 02:59:28;;;;;;;14.65;2.70;;;;;;;;;;5017806;28;20053;-71
2023/07/30 03:01:53;;;;;;;17.73;2.95;;;;;;;;;;5048360;28;20266;-73
2023/07/30 03:04:21;;;;;;;14.50;2.50;;;;;;;;;;5016538;28;20142;-75
2023/07/30 03:06:48;;;;;;;10.60;2.20;;;;;;;;;;5019061;28;20063;-73
2023/07/30 03:09:13;;;;;;;17.65;2.80;;;;;;;;;;5022125;28;20120;-73
2023/07/30 03:11:38;;;;;;;14.00;2.20;;;;;;;;;;5016790;28;20061;-76
2023/07/30 03:14:06;;;;;;;17.77;2.35;;;;;;;;;;5046865;28;20106;-76
2023/07/30 03:16:31;;;;;;;15.23;2.65;;;;;;;;;;5014752;28;20037;-75
2023/07/30 03:18:57;;;;;;;11.93;2.30;;;;;;;;;;5017441;28;20183;-75
2023/07/30 03:21:22;;;;;;;11.85;2.08;;;;;;;;;;5017272;28;20029;-75
2023/07/30 03:23:48;;;;;;;11.82;2.38;;;;;;;;;;5019494;28;20052;-72
2023/07/30 03:26:13;;;;;;;16.60;2.55;;;;;;;;;;5019746;28;20032;-74
2023/07/30 03:28:38;;;;;;;18.10;2.72;;;;;;;;;;5022407;28;20087;-73
2023/07/30 03:31:04;;;;;;;9.18;2.00;;;;;;;;;;5021110;28;20041;-73
2023/07/30 03:33:30;;;;;;;12.68;2.50;;;;;;;;;;5019145;28;20610;-73
2023/07/30 03:35:56;;;;;;;13.35;2.47;;;;;;;;;;5017080;28;20037;-73
2023/07/30 03:38:21;;;;;;;12.45;1.92;;;;;;;;;;5017749;28;20049;-73
2023/07/30 03:40:46;;;;;;;14.32;2.40;;;;;;;;;;5017753;28;20048;-75
2023/07/30 03:43:14;;;;;;;16.70;2.50;;;;;;;;;;5018186;28;20049;-73
2023/07/30 03:45:40;;;;;;;15.25;2.33;;;;;;;;;;5018634;28;20160;-73
2023/07/30 03:48:05;;;;;;;16.77;2.97;;;;;;;;;;5017860;28;20045;-72
2023/07/30 03:50:30;;;;;;;15.98;2.85;;;;;;;;;;5033053;28;20045;-71
2023/07/30 03:52:57;;;;;;;14.20;2.63;;;;;;;;;;5022083;28;20071;-71
2023/07/30 03:55:24;;;;;;;17.17;2.70;;;;;;;;;;5003107;28;20072;-71
2023/07/30 03:57:52;;;;;;;16.33;2.58;;;;;;;;;;5025622;28;20049;-72
2023/07/30 04:00:17;;;;;;;16.80;2.70;;;;;;;;;;5020944;28;20151;-73
2023/07/30 04:02:43;;;;;;;20.17;3.10;;;;;;;;;;5021898;28;20033;-75
2023/07/30 04:05:08;;;;;;;21.17;3.05;;;;;;;;;;5024510;28;20117;-74
2023/07/30 04:07:36;;;;;;;19.15;3.03;;;;;;;;;;5021537;28;20033;-74
2023/07/30 04:10:01;;;;;;;17.50;2.70;;;;;;;;;;5019536;28;20048;-74
2023/07/30 04:12:27;;;;;;;12.65;2.72;;;;;;;;;;5021964;28;20127;-70
2023/07/30 04:14:52;;;;;;;16.95;3.13;;;;;;;;;;5019217;28;20029;-72
2023/07/30 04:17:17;;;;;;;15.85;2.78;;;;;;;;;;5035429;28;20146;-74
2023/07/30 04:19:43;;;;;;;19.83;3.50;;;;;;;;;;5020519;28;20040;-75
2023/07/30 04:22:08;;;;;;;20.17;3.10;;;;;;;;;;5021177;28;20029;-77
2023/07/30 04:24:33;;;;;;;19.05;2.80;;;;;;;;;;5022388;28;20041;-74
2023/07/30 04:27:00;;;;;;;15.52;2.53;;;;;;;;;;5017426;28;20820;-74
2023/07/30 04:29:25;;;;;;;17.20;2.67;;;;;;;;;;5013746;28;20687;-72
2023/07/30 04:31:50;;;;;;;13.75;2.38;;;;;;;;;;5007694;28;20044;-75
2023/07/30 04:34:16;;;;;;;16.50;2.53;;;;;;;;;;5032495;28;20144;-74
2023/07/30 04:36:41;;;;;;;13.82;2.95;;;;;;;;;;5029890;28;20037;-73
2023/07/30 04:39:06;;;;;;;17.63;3.05;;;;;;;;;;5001179;28;20030;-72
2023/07/30 04:41:36;;;;;;;15.20;2.75;;;;;;;;;;4999820;28;20071;-75
2023/07/30 04:44:01;;;;;;;13.75;2.80;;;;;;;;;;5021667;28;20098;-72
2023/07/30 04:46:27;;;;;;;20.80;3.83;;;;;;;;;;5015099;28;20085;-72
2023/07/30 04:48:54;;;;;;;14.13;2.70;;;;;;;;;;5029509;28;20040;-72
2023/07/30 04:51:19;;;;;;;18.52;2.83;;;;;;;;;;5017824;28;20641;-70
2023/07/30 04:53:45;;;;;;;13.60;3.00;;;;;;;;;;5014281;28;20034;-71
2023/07/30 04:56:14;;;;;;;20.45;3.08;;;;;;;;;;5020182;28;20150;-71
2023/07/30 04:58:40;;;;;;;20.35;3.00;;;;;;;;;;5018028;28;20107;-69
2023/07/30 05:01:05;;;;;;;19.60;2.88;;;;;;;;;;5017845;28;20116;-71
2023/07/30 05:03:30;;;;;;;16.35;3.60;;;;;;;;;;5018372;28;20621;-73
2023/07/30 05:05:56;;;;;;;21.23;3.38;;;;;;;;;;5017939;28;20149;-79
2023/07/30 05:08:21;;;;;;;15.65;2.53;;;;;;;;;;5007649;28;20045;-78
2023/07/30 05:10:46;;;;;;;17.88;2.72;;;;;;;;;;5017230;28;20040;-76
2023/07/30 05:13:12;;;;;;;21.20;3.03;;;;;;;;;;5016775;28;20029;-79
2023/07/30 05:15:40;;;;;;;14.32;3.13;;;;;;;;;;5018630;28;20044;-77
2023/07/30 05:18:06;;;;;;;18.77;2.80;;;;;;;;;;5016187;28;20413;-78
2023/07/30 05:20:31;;;;;;;16.35;2.70;;;;;;;;;;5030649;28;20044;-77
2023/07/30 05:22:56;;;;;;;25.92;3.47;;;;;;;;;;5018002;28;20290;-78
2023/07/30 05:25:22;;;;;;;16.83;2.83;;;;;;;;;;5034035;28;20040;-74
2023/07/30 05:27:48;;;;;;;13.98;2.78;;;;;;;;;;5032147;28;20052;-77
2023/07/30 05:30:13;;;;;;;17.45;2.67;;;;;;;;;;4996104;28;20033;-76
2023/07/30 05:32:39;;;;;;;19.20;3.20;;;;;;;;;;4999594;28;20060;-75
2023/07/30 05:35:04;;;;;;;12.18;2.40;;;;;;;;;;5019167;28;20126;-74
2023/07/30 05:37:30;;;;;;;13.40;2.85;;;;;;;;;;5031564;28;21860;-77
2023/07/30 05:39:57;;;;;;;18.52;3.15;;;;;;;;;;5050905;28;20043;-78
2023/07/30 05:42:27;;;;;;;17.80;3.35;;;;;;;;;;5017618;28;20087;-78
2023/07/30 05:44:53;;;;;;;22.73;3.55;;;;;;;;;;5019562;28;20056;-77
2023/07/30 05:47:21;;;;;;;21.98;3.58;;;;;;;;;;5015465;28;20493;-78
2023/07/30 05:49:46;;;;;;;21.17;3.70;;;;;;;;;;5018371;28;20083;-77
2023/07/30 05:52:11;;;;;;;21.85;3.63;;;;;;;;;;5019106;28;20040;-77
2023/07/30 05:54:36;;;;;;;18.10;3.55;;;;;;;;;;5019353;28;20041;-75
2023/07/30 05:57:02;;;;;;;19.65;3.67;;;;;;;;;;5019663;28;20040;-78
2023/07/30 05:59:27;;;;;;;19.63;3.45;;;;;;;;;;5012711;28;20033;-78
2023/07/30 06:01:55;;;;;;;13.90;3.28;;;;;;;;;;5047777;28;20038;-78
2023/07/30 06:04:21;;;;;;;16.58;3.30;;;;;;;;;;5016095;28;20090;-78
2023/07/30 06:06:46;;;;;;;14.15;2.90;;;;;;;;;;5043690;28;20510;-78
2023/07/30 06:09:12;;;;;;;19.77;2.80;;;;;;;;;;5015129;28;20092;-77
2023/07/30 06:11:37;;;;;;;12.60;2.90;;;;;;;;;;5015757;28;20120;-78
2023/07/30 06:14:02;;;;;;;16.25;2.55;;;;;;;;;;5015764;28;20111;-79
2023/07/30 06:16:30;;;;;;;13.82;2.38;;;;;;;;;;5017888;28;22486;-79
2023/07/30 06:18:56;;;;;;;19.55;2.80;;;;;;;;;;5020483;28;20083;-77
2023/07/30 06:21:21;;;;;;;19.80;3.28;;;;;;;;;;5022249;28;20029;-75
2023/07/30 06:23:46;;;;;;;12.27;2.60;;;;;;;;;;5018266;28;20037;-75
2023/07/30 06:26:11;;;;;;;13.20;2.92;;;;;;;;;;5003151;28;20564;-74
2023/07/30 06:28:37;;;;;;;13.30;2.63;;;;;;;;;;5016001;28;20041;-76
2023/07/30 06:31:02;;;;;;;16.90;3.33;;;;;;;;;;4995864;28;20041;-81
2023/07/30 06:33:27;;;;;;;12.40;3.05;;;;;;;;;;5003266;28;20069;-77
2023/07/30 06:35:55;;;;;;;20.98;3.10;;;;;;;;;;5051968;28;20036;-77
2023/07/30 06:38:22;;;;;;;18.42;3.70;;;;;;;;;;5005647;28;20045;-74
2023/07/30 06:40:47;;;;;;;19.35;3.20;;;;;;;;;;4996467;28;20029;-78
2023/07/30 06:43:12;;;;;;;17.85;3.22;;;;;;;;;;4998080;28;20080;-75
2023/07/30 06:45:37;;;;;;;15.05;2.97;;;;;;;;;;5013824;28;20091;-75
2023/07/30 06:48:03;;;;;;;17.98;3.50;;;;;;;;;;4998874;28;20045;-76
2023/07/30 06:50:28;;;;;;;17.60;2.88;;;;;;;;;;4998325;28;20040;-75
2023/07/30 06:52:53;;;;;;;16.30;2.80;;;;;;;;;;4995792;28;20044;-75
2023/07/30 06:55:19;;;;;;;20.15;2.80;;;;;;;;;;4995670;28;20041;-77
2023/07/30 06:57:44;;;;;;;22.92;3.83;;;;;;;;;;5007914;28;20051;-77
2023/07/30 07:00:09;;;;;;;21.30;3.35;;;;;;;;;;5022331;28;20075;-76
2023/07/30 07:02:36;;;;;;;18.77;3.15;;;;;;;;;;5018556;28;20563;-75
2023/07/30 07:05:01;;;;;;;28.02;3.92;;;;;;;;;;5019868;28;20029;-75
2023/07/30 07:07:26;;;;;;;24.10;4.22;;;;;;;;;;5030631;28;20040;-74
2023/07/30 07:09:52;;;;;;;22.02;3.75;;;;;;;;;;5019466;28;20033;-75
2023/07/30 07:12:17;;;;;;;16.75;2.90;;;;;;;;;;5017593;28;20032;-78
2023/07/30 07:14:43;;;;;;;16.67;3.20;;;;;;;;;;5015040;28;21218;-73
2023/07/30 07:17:08;;;;;;;18.15;2.33;;;;;;;;;;5017560;28;20095;-74
2023/07/30 07:19:36;;;;;;;20.42;3.10;;;;;;;;;;5016896;28;20039;-75
2023/07/30 07:22:02;;;;;;;17.63;2.67;;;;;;;;;;5016551;28;20121;-77
2023/07/30 07:24:28;;;;;;;16.20;2.63;;;;;;;;;;4997085;28;20117;-74
2023/07/30 07:26:53;;;;;;;17.02;2.92;;;;;;;;;;5016753;28;20297;-74
2023/07/30 07:29:18;;;;;;;16.80;3.08;;;;;;;;;;5020302;28;20485;-73
2023/07/30 07:31:44;;;;;;;12.93;2.55;;;;;;;;;;5016767;28;20028;-74
2023/07/30 07:34:10;;;;;;;18.02;2.80;;;;;;;;;;5018809;28;20068;-73
2023/07/30 07:36:37;;;;;;;17.27;2.85;;;;;;;;;;5018430;28;20048;-74
2023/07/30 07:39:03;;;;;;;18.67;3.10;;;;;;;;;;5018049;28;20049;-74
2023/07/30 07:41:28;;;;;;;17.85;3.03;;;;;;;;;;5017876;28;20561;-74
2023/07/30 07:43:54;;;;;;;19.27;2.90;;;;;;;;;;5014816;28;20037;-76
2023/07/30 07:46:19;;;;;;;18.23;3.35;;;;;;;;;;5013644;28;20037;-74
2023/07/30 07:48:44;;;;;;;12.00;2.90;;;;;;;;;;5012312;28;20469;-76
2023/07/30 07:51:10;;;;;;;16.08;2.97;;;;;;;;;;5015540;28;21067;-77
2023/07/30 07:53:36;;;;;;;14.02;2.67;;;;;;;;;;5015154;28;20037;-74
2023/07/30 07:56:03;;;;;;;17.85;3.47;;;;;;;;;;5032492;28;20202;-76
2023/07/30 07:58:29;;;;;;;14.10;3.10;;;;;;;;;;5015629;28;20178;-76
2023/07/30 08:00:57;;;;;;;13.73;3.00;;;;;;;;;;5019349;28;20565;-78
2023/07/30 08:03:22;;;;;;;22.67;3.13;;;;;;;;;;5016304;28;20036;-75
2023/07/30 08:05:48;;;;;;;13.55;2.65;;;;;;;;;;5018688;28;20040;-79
2023/07/30 08:08:13;;;;;;;18.92;3.35;;;;;;;;;;5013324;28;20122;-79
2023/07/30 08:10:39;;;;;;;16.95;3.10;;;;;;;;;;5016966;28;20043;-78
2023/07/30 08:13:05;;;;;;;15.40;2.83;;;;;;;;;;5018491;28;20645;-79
2023/07/30 08:15:30;;;;;;;15.50;3.20;;;;;;;;;;5012215;28;20033;-76
2023/07/30 08:17:55;;;;;;;19.05;2.88;;;;;;;;;;5017985;28;20041;-78
2023/07/30 08:20:20;;;;;;;14.05;2.97;;;;;;;;;;5016235;28;20041;-78
2023/07/30 08:22:46;;;;;;;19.05;3.10;;;;;;;;;;5046340;28;20032;-78
2023/07/30 08:25:11;;;;;;;12.00;3.00;;;;;;;;;;5014752;28;20044;-78
2023/07/30 08:27:39;;;;;;;12.88;2.90;;;;;;;;;;5016728;28;20041;-80
2023/07/30 08:30:04;;;;;;;16.33;3.20;;;;;;;;;;4996773;28;20083;-78
2023/07/30 08:32:32;;;;;;;17.58;3.25;;;;;;;;;;5014447;28;20094;-77
2023/07/30 08:34:58;;;;;;;14.35;2.72;;;;;;;;;;5010997;28;20088;-72
2023/07/30 08:37:23;;;;;;;17.17;3.30;;;;;;;;;;5015992;28;20049;-77
2023/07/30 08:39:50;;;;;;;17.40;2.80;;;;;;;;;;5018356;28;20033;-77
2023/07/30 08:42:18;;;;;;;19.95;3.53;;;;;;;;;;5013109;28;20040;-76
2023/07/30 08:44:44;;;;;;;14.00;3.13;;;;;;;;;;5014464;28;20144;-76
2023/07/30 08:47:09;;;;;;;16.80;3.10;;;;;;;;;;5046597;28;20077;-76
2023/07/30 08:49:37;;;;;;;16.38;3.20;;;;;;;;;;5017636;28;20172;-78
2023/07/30 08:52:03;;;;;;;16.02;2.92;;;;;;;;;;5015721;28;20033;-78
2023/07/30 08:54:31;;;;;;;16.10;3.10;;;;;;;;;;5010049;28;20087;-78
2023/07/30 08:56:57;;;;;;;16.70;3.08;;;;;;;;;;5001747;28;20038;-77
2023/07/30 08:59:24;;;;;;;17.65;3.05;;;;;;;;;;4997312;28;20033;-74
2023/07/30 09:01:51;;;;;;;17.75;2.95;;;;;;;;;;4991806;28;21081;-77
2023/07/30 09:04:17;;;;;;;15.63;3.40;;;;;;;;;;4998996;28;20120;-78
2023/07/30 09:06:42;;;;;;;18.67;3.45;;;;;;;;;;4996680;28;20403;-77
2023/07/30 09:09:10;;;;;;;18.00;3.17;;;;;;;;;;4994400;28;20037;-75
2023/07/30 09:11:35;;;;;;;15.50;2.97;;;;;;;;;;5033436;28;20161;-74
2023/07/30 09:14:03;;;;;;;13.88;2.60;;;;;;;;;;5016526;28;20033;-73
2023/07/30 09:16:28;;;;;;;19.83;3.33;;;;;;;;;;5020750;28;20059;-75
2023/07/30 09:18:56;;;;;;;17.45;3.33;;;;;;;;;;5039289;28;20140;-75
2023/07/30 09:21:31;;;;;;;22.92;3.45;;;;;;;;;;5019761;28;20643;-74
2023/07/30 09:23:58;;;;;;;22.80;3.33;;;;;;;;;;5040800;28;20043;-75
2023/07/30 09:26:23;;;;;;;17.42;2.90;;;;;;;;;;5024212;28;20068;-77
2023/07/30 09:28:48;;;;;;;16.05;2.72;;;;;;;;;;5019463;28;20941;-77
2023/07/30 09:31:14;;;;;;;14.68;3.15;;;;;;;;;;5019725;28;22613;-76
2023/07/30 09:33:42;;;;;;;22.10;2.95;;;;;;;;;;5031607;28;20048;-69
2023/07/30 09:36:10;;;;;;;16.33;2.65;;;;;;;;;;5004999;28;20041;-74
2023/07/30 09:38:45;;;;;;;16.48;3.05;;;;;;;;;;5004183;28;20513;-74
2023/07/30 09:41:14;;;;;;;17.10;2.70;;;;;;;;;;5003134;28;20045;-73
2023/07/30 09:43:40;;;;;;;19.73;3.22;;;;;;;;;;5009642;28;20061;-72
2023/07/30 09:46:06;;;;;;;28.90;3.15;;;;;;;;;;5024524;28;20133;-71
2023/07/30 09:48:34;;;;;;;28.65;3.45;;;;;;;;;;5023941;28;20325;-71
2023/07/30 09:51:00;;;;;;;28.55;3.30;;;;;;;;;;5024729;28;20410;-70
2023/07/30 09:53:26;;;;;;;19.25;3.45;;;;;;;;;;5014845;28;20036;-71
2023/07/30 09:55:51;;;;;;;20.75;3.33;;;;;;;;;;5046100;28;20123;-72
2023/07/30 09:58:17;;;;;;;23.45;3.35;;;;;;;;;;5020208;28;20045;-70
2023/07/30 10:00:44;;;;;;;23.20;3.45;;;;;;;;;;5016546;28;20067;-73
2023/07/30 10:03:10;;;;;;;20.90;3.03;;;;;;;;;;5009954;28;20037;-71
2023/07/30 10:05:37;;;;;;;20.35;3.78;;;;;;;;;;5002394;28;20042;-72
2023/07/30 10:08:07;;;;;;;22.05;3.42;;;;;;;;;;5021343;28;20160;-71
2023/07/30 10:10:33;;;;;;;20.60;3.55;;;;;;;;;;5024741;28;20050;-72
2023/07/30 10:13:00;;;;;;;16.77;3.42;;;;;;;;;;5042544;28;20037;-72
2023/07/30 10:15:25;;;;;;;20.52;3.30;;;;;;;;;;5024472;28;20623;-73
2023/07/30 10:17:51;;;;;;;21.63;3.50;;;;;;;;;;5026289;28;20052;-72
2023/07/30 10:20:23;;;;;;;24.08;3.95;;;;;;;;;;5026239;28;20042;-73
2023/07/30 10:22:54;;;;;;;18.42;3.03;;;;;;;;;;5022145;28;20460;-73
2023/07/30 10:25:27;;;;;;;21.98;3.13;;;;;;;;;;5028353;28;20036;-71
2023/07/30 10:27:53;;;;;;;22.95;3.53;;;;;;;;;;5045361;28;20041;-72
2023/07/30 10:30:19;;;;;;;22.00;3.15;;;;;;;;;;5052689;28;20495;-70
2023/07/30 10:32:58;;;;;;;22.70;3.17;;;;;;;;;;5022107;28;20036;-72
2023/07/30 10:35:41;;;;;;;21.73;3.45;;;;;;;;;;5019014;28;20068;-72
2023/07/30 10:38:27;;;;;;;17.60;3.53;;;;;;;;;;5025085;28;20053;-72
2023/07/30 10:41:02;;;;;;;27.13;3.97;;;;;;;;;;5020884;28;20041;-72
2023/07/30 10:43:33;;;;;;;19.85;3.47;;;;;;;;;;5012792;28;20033;-71
2023/07/30 10:45:58;;;;;;;25.02;3.53;;;;;;;;;;5005990;28;20180;-73
2023/07/30 10:48:34;;;;;;;28.08;3.60;;;;;;;;;;5023294;28;20080;-72
2023/07/30 10:51:03;;;;;;;26.77;3.33;;;;;;;;;;5018990;28;20072;-72
2023/07/30 10:53:28;;;;;;;28.20;3.88;;;;;;;;;;5016793;28;20048;-74
2023/07/30 10:55:55;;;;;;;23.52;3.58;;;;;;;;;;5021479;28;20312;-72
2023/07/30 10:58:24;;;;;;;24.83;3.63;;;;;;;;;;5021175;28;20048;-71
2023/07/30 11:00:49;;;;;;;25.17;3.70;;;;;;;;;;5039061;28;20560;-70
2023/07/30 11:03:15;;;;;;;26.58;4.30;;;;;;;;;;5013508;28;20041;-71
2023/07/30 11:05:40;;;;;;;32.38;3.65;;;;;;;;;;5021501;28;20514;-74
2023/07/30 11:08:05;;;;;;;27.35;3.58;;;;;;;;;;5029810;28;20169;-74
2023/07/30 11:10:31;;;;;;;31.85;4.05;;;;;;;;;;4999503;28;21041;-72
2023/07/30 11:12:57;;;;;;;35.90;3.85;;;;;;;;;;4997097;28;20033;-74
2023/07/30 11:15:25;;;;;;;33.45;4.50;;;;;;;;;;4999982;28;20038;-74
2023/07/30 11:17:53;;;;;;;36.03;4.90;;;;;;;;;;5007534;28;20666;-73
2023/07/30 11:20:23;;;;;;;28.15;3.65;;;;;;;;;;4993711;28;20048;-72
2023/07/30 11:22:48;;;;;;;25.85;3.85;;;;;;;;;;5014844;28;20032;-71
2023/07/30 11:25:17;;;;;;;20.65;4.25;;;;;;;;;;5031295;28;20200;-72
2023/07/30 11:27:46;;;;;;;25.70;4.30;;;;;;;;;;5018599;28;20064;-72
2023/07/30 11:30:11;;;;;;;22.92;3.90;;;;;;;;;;5020866;28;20055;-72
2023/07/30 11:32:36;;;;;;;26.65;4.22;;;;;;;;;;5006331;28;20034;-75
2023/07/30 11:35:02;;;;;;;19.48;3.10;;;;;;;;;;5022528;28;20107;-72
2023/07/30 11:37:27;;;;;;;30.67;4.05;;;;;;;;;;5050817;28;20056;-75
2023/07/30 11:39:55;;;;;;;36.50;4.25;;;;;;;;;;5020273;28;20124;-76
2023/07/30 11:42:22;;;;;;;26.80;3.40;;;;;;;;;;5018184;28;20042;-76
2023/07/30 11:44:51;;;;;;;28.92;4.13;;;;;;;;;;5022225;28;20037;-76
2023/07/30 11:47:23;;;;;;;26.58;3.88;;;;;;;;;;5048227;28;20486;-75
2023/07/30 11:49:55;;;;;;;25.63;3.95;;;;;;;;;;5017747;28;20624;-74
2023/07/30 11:52:23;;;;;;;24.70;3.53;;;;;;;;;;5014027;28;20422;-73
2023/07/30 11:55:01;;;;;;;22.83;3.35;;;;;;;;;;5011939;28;20037;-73
2023/07/30 11:57:35;;;;;;;24.23;3.72;;;;;;;;;;5024315;28;20042;-74
2023/07/30 12:00:07;;;;;;;30.10;3.85;;;;;;;;;;5025474;28;20043;-72
2023/07/30 12:02:35;;;;;;;29.02;4.30;;;;;;;;;;5056029;28;20040;-74
2023/07/30 12:05:03;;;;;;;27.70;3.95;;;;;;;;;;5022819;28;20460;-72
2023/07/30 12:07:29;;;;;;;23.88;3.72;;;;;;;;;;5021555;28;20061;-74
2023/07/30 12:10:06;;;;;;;29.73;3.75;;;;;;;;;;5022459;28;20061;-76
2023/07/30 12:12:31;;;;;;;31.15;4.28;;;;;;;;;;5015777;28;20040;-74
2023/07/30 12:14:56;;;;;;;31.90;4.00;;;;;;;;;;5020424;28;20034;-76
2023/07/30 12:17:22;;;;;;;28.88;3.95;;;;;;;;;;5036087;28;20183;-77
2023/07/30 12:19:47;;;;;;;30.30;3.72;;;;;;;;;;5018380;28;20037;-71
2023/07/30 12:22:13;;;;;;;35.67;4.70;;;;;;;;;;5015223;28;20445;-73
2023/07/30 12:24:38;;;;;;;25.20;3.65;;;;;;;;;;5018055;28;20348;-74
2023/07/30 12:27:04;;;;;;;27.33;3.60;;;;;;;;;;5014416;28;20893;-73
2023/07/30 12:29:32;;;;;;;19.88;3.58;;;;;;;;;;5029111;28;20610;-73
2023/07/30 12:31:57;;;;;;;32.90;4.30;;;;;;;;;;5030509;28;20117;-72
2023/07/30 12:34:23;;;;;;;29.15;3.92;;;;;;;;;;5025821;28;20112;-75
2023/07/30 12:36:48;;;;;;;20.25;4.03;;;;;;;;;;5015077;28;20041;-72
2023/07/30 12:39:14;;;;;;;31.00;4.05;;;;;;;;;;5012585;28;20053;-75
2023/07/30 12:41:39;;;;;;;28.42;4.10;;;;;;;;;;5016718;28;20126;-72
2023/07/30 12:44:04;;;;;;;28.55;3.45;;;;;;;;;;5019131;28;20782;-77
2023/07/30 12:46:31;;;;;;;32.80;4.38;;;;;;;;;;5008735;28;20116;-77
2023/07/30 12:48:57;;;;;;;26.02;3.67;;;;;;;;;;5016512;28;20487;-76
2023/07/30 12:51:25;;;;;;;33.00;3.97;;;;;;;;;;5014947;28;20028;-77
2023/07/30 12:53:50;;;;;;;27.30;4.32;;;;;;;;;;5015752;28;20033;-72
2023/07/30 12:56:15;;;;;;;28.58;4.40;;;;;;;;;;5032213;28;20187;-76
2023/07/30 12:58:41;;;;;;;28.10;3.75;;;;;;;;;;5012209;28;20044;-72
2023/07/30 13:01:06;;;;;;;27.83;3.90;;;;;;;;;;5044935;28;20034;-70
2023/07/30 13:03:31;;;;;;;29.65;4.53;;;;;;;;;;5026509;28;20497;-74
2023/07/30 13:05:57;;;;;;;30.20;3.83;;;;;;;;;;5016084;28;21046;-73
2023/07/30 13:08:25;;;;;;;26.77;3.60;;;;;;;;;;4980496;28;20048;-72
2023/07/30 13:10:55;;;;;;;35.60;4.38;;;;;;;;;;5011868;28;20574;-72
2023/07/30 13:13:20;;;;;;;29.92;4.30;;;;;;;;;;5008975;28;20494;-74
2023/07/30 13:15:45;;;;;;;25.00;3.92;;;;;;;;;;5014081;28;20041;-75
2023/07/30 13:18:10;;;;;;;29.48;4.25;;;;;;;;;;5015255;28;20045;-74
2023/07/30 13:20:36;;;;;;;34.85;5.03;;;;;;;;;;5014947;28;20132;-76
2023/07/30 13:23:03;;;;;;;32.88;4.40;;;;;;;;;;5015413;28;20116;-76
2023/07/30 13:25:29;;;;;;;35.20;4.95;;;;;;;;;;5012238;28;20033;-73
2023/07/30 13:27:54;;;;;;;43.00;4.78;;;;;;;;;;5015542;28;20033;-73
2023/07/30 13:30:19;;;;;;;30.88;4.15;;;;;;;;;;5018519;28;20116;-70
2023/07/30 13:32:45;;;;;;;24.70;3.58;;;;;;;;;;5016442;28;20073;-70
2023/07/30 13:35:10;;;;;;;41.67;5.03;;;;;;;;;;5029353;28;20159;-71
2023/07/30 13:37:38;;;;;;;35.47;4.38;;;;;;;;;;5019803;28;20056;-73
2023/07/30 13:40:03;;;;;;;33.92;4.57;;;;;;;;;;5016728;28;20044;-75
2023/07/30 13:42:28;;;;;;;31.13;4.40;;;;;;;;;;5015080;28;20037;-75
2023/07/30 13:44:54;;;;;;;30.23;4.07;;;;;;;;;;5016264;28;20041;-76
2023/07/30 13:47:21;;;;;;;27.92;4.13;;;;;;;;;;5009846;28;20047;-74
2023/07/30 13:49:47;;;;;;;29.13;4.20;;;;;;;;;;5016624;28;20025;-74
2023/07/30 13:52:13;;;;;;;27.75;3.78;;;;;;;;;;5050039;28;20055;-72
2023/07/30 13:54:41;;;;;;;41.22;5.72;;;;;;;;;;5008502;28;20150;-73
2023/07/30 13:57:07;;;;;;;31.08;4.05;;;;;;;;;;5041257;28;20030;-74
2023/07/30 13:59:32;;;;;;;27.95;3.80;;;;;;;;;;5010401;28;20033;-74
2023/07/30 14:01:59;;;;;;;25.75;3.53;;;;;;;;;;5011652;28;20025;-72
2023/07/30 14:04:25;;;;;;;35.42;4.30;;;;;;;;;;5014430;28;20029;-71
2023/07/30 14:06:50;;;;;;;28.70;4.18;;;;;;;;;;4999858;28;20034;-73
2023/07/30 14:09:18;;;;;;;31.27;4.15;;;;;;;;;;5022259;28;20033;-71
2023/07/30 14:11:46;;;;;;;30.88;4.25;;;;;;;;;;5009203;28;20155;-74
2023/07/30 14:14:11;;;;;;;40.78;5.50;;;;;;;;;;4994459;28;22280;-74
2023/07/30 14:16:37;;;;;;;43.47;5.53;;;;;;;;;;4991647;28;20038;-72
2023/07/30 14:19:02;;;;;;;34.35;5.10;;;;;;;;;;4990160;28;20037;-74
2023/07/30 14:21:30;;;;;;;32.17;4.72;;;;;;;;;;4995162;28;20038;-72
2023/07/30 14:23:55;;;;;;;27.27;4.43;;;;;;;;;;4995228;28;20083;-75
2023/07/30 14:26:21;;;;;;;32.28;4.93;;;;;;;;;;5028485;28;20079;-73